createdAt,value
2019-04-27T00:03:25.411Z,6.33
2019-04-27T00:06:05.343Z,8.23
2019-04-27T00:08:47.155Z,10.93
2019-04-27T00:11:53.130Z,11.57
2019-04-27T00:14:27.401Z,8.73
2019-04-27T00:17:40.479Z,8.40
2019-04-27T00:20:13.133Z,10.55
2019-04-27T00:22:58.988Z,12.30
2019-04-27T00:25:32.854Z,11.12
2019-04-27T00:28:06.759Z,10.38
2019-04-27T00:30:40.115Z,9.98
2019-04-27T00:33:13.702Z,10.48
2019-04-27T00:36:03.079Z,10.30
2019-04-27T00:39:00.908Z,9.05
2019-04-27T00:41:34.026Z,10.65
2019-04-27T00:44:08.306Z,10.68
2019-04-27T00:46:43.138Z,8.78
2019-04-27T00:49:20.102Z,10.50
2019-04-27T00:51:53.605Z,14.83
2019-04-27T00:54:27.386Z,10.80
2019-04-27T00:57:17.370Z,12.55
2019-04-27T01:00:08.178Z,12.25
2019-04-27T01:03:03.800Z,13.13
2019-04-27T01:05:36.782Z,10.38
2019-04-27T01:08:10.041Z,12.68
2019-04-27T01:13:13.536Z,7.67
2019-04-27T01:15:47.281Z,11.22
2019-04-27T01:18:20.697Z,12.28
2019-04-27T01:23:25.118Z,9.65
2019-04-27T01:26:28.694Z,10.28
2019-04-27T01:31:36.367Z,9.15
2019-04-27T01:34:09.857Z,10.23
2019-04-27T01:36:43.193Z,11.28
2019-04-27T01:39:19.047Z,10.75
2019-04-27T01:41:51.710Z,9.03
2019-04-27T01:44:25.736Z,8.40
2019-04-27T01:46:59.916Z,10.68
2019-04-27T01:49:37.527Z,9.15
2019-04-27T01:52:11.047Z,10.80
2019-04-27T01:57:19.374Z,6.90
2019-04-27T01:59:52.990Z,8.05
2019-04-27T02:02:35.787Z,8.93
2019-04-27T02:05:40.178Z,9.78
2019-04-27T02:08:13.495Z,9.60
2019-04-27T02:10:49.659Z,9.53
2019-04-27T02:13:23.635Z,8.28
2019-04-27T02:15:56.659Z,9.15
2019-04-27T02:18:37.569Z,9.53
2019-04-27T02:21:05.296Z,8.28
2019-04-27T02:23:41.352Z,11.35
2019-04-27T02:26:14.745Z,11.68
2019-04-27T02:32:10.454Z,10.00
2019-04-27T02:34:51.905Z,9.15
2019-04-27T02:37:26.791Z,10.58
2019-04-27T02:40:00.846Z,11.68
2019-04-27T02:42:43.368Z,8.40
2019-04-27T02:45:19.924Z,11.22
2019-04-27T02:47:53.259Z,9.08
2019-04-27T02:50:29.098Z,11.22
2019-04-27T02:53:06.394Z,11.50
2019-04-27T02:55:39.898Z,10.82
2019-04-27T03:00:46.346Z,6.53
2019-04-27T03:05:55.831Z,7.42
2019-04-27T03:11:04.199Z,5.47
2019-04-27T03:14:05.659Z,7.58
2019-04-27T03:16:53.067Z,8.43
2019-04-27T03:19:52.384Z,9.35
2019-04-27T03:22:30.209Z,6.58
2019-04-27T03:25:21.839Z,9.08
2019-04-27T03:28:10.985Z,7.90
2019-04-27T03:30:47.067Z,7.95
2019-04-27T03:33:22.438Z,8.05
2019-04-27T03:35:57.409Z,7.17
2019-04-27T03:38:35.096Z,9.80
2019-04-27T03:41:09.674Z,10.13
2019-04-27T03:43:43.579Z,11.20
2019-04-27T03:46:20.834Z,10.53
2019-04-27T03:48:55.304Z,10.48
2019-04-27T03:51:36.976Z,10.45
2019-04-27T03:54:29.628Z,12.10
2019-04-27T03:57:23.712Z,12.82
2019-04-27T04:00:01.426Z,9.18
2019-04-27T04:02:34.884Z,9.03
2019-04-27T04:07:42.224Z,8.35
2019-04-27T04:10:15.971Z,11.78
2019-04-27T04:13:01.696Z,10.43
2019-04-27T04:15:52.107Z,9.40
2019-04-27T04:18:29.683Z,10.48
2019-04-27T04:21:02.824Z,12.47
2019-04-27T04:23:37.445Z,11.45
2019-04-27T04:26:12.005Z,10.40
2019-04-27T04:28:46.255Z,8.58
2019-04-27T04:31:21.019Z,9.60
2019-04-27T04:33:54.586Z,10.65
2019-04-27T04:36:29.778Z,10.70
2019-04-27T04:39:02.525Z,9.03
2019-04-27T04:44:35.563Z,7.85
2019-04-27T04:47:30.788Z,8.80
2019-04-27T04:50:11.351Z,9.38
2019-04-27T04:52:42.412Z,10.70
2019-04-27T04:55:15.250Z,11.90
2019-04-27T05:00:22.271Z,7.42
2019-04-27T05:02:55.952Z,10.63
2019-04-27T05:05:29.473Z,11.22
2019-04-27T05:10:35.008Z,8.13
2019-04-27T05:13:09.343Z,11.15
2019-04-27T05:15:42.823Z,11.43
2019-04-27T05:18:15.972Z,11.12
2019-04-27T05:23:31.741Z,10.90
2019-04-27T05:26:05.687Z,9.95
2019-04-27T05:28:40.777Z,12.90
2019-04-27T05:31:14.012Z,10.68
2019-04-27T05:33:48.864Z,11.25
2019-04-27T05:36:22.007Z,10.75
2019-04-27T05:38:54.992Z,10.65
2019-04-27T05:44:18.443Z,12.37
2019-04-27T05:47:25.608Z,8.35
2019-04-27T05:50:09.160Z,9.65
2019-04-27T05:52:41.875Z,11.75
2019-04-27T05:55:15.184Z,9.53
2019-04-27T06:00:22.226Z,8.18
2019-04-27T06:02:55.217Z,12.20
2019-04-27T06:05:29.253Z,9.05
2019-04-27T06:08:02.730Z,11.73
2019-04-27T06:10:35.213Z,8.03
2019-04-27T06:13:08.457Z,10.30
2019-04-27T06:15:42.592Z,10.58
2019-04-27T06:18:16.020Z,7.87
2019-04-27T06:20:54.953Z,7.25
2019-04-27T06:23:24.103Z,7.95
2019-04-27T06:25:56.867Z,9.00
2019-04-27T06:28:31.454Z,11.08
2019-04-27T06:31:04.857Z,6.12
2019-04-27T06:33:39.189Z,9.03
2019-04-27T06:36:13.417Z,8.33
2019-04-27T06:38:48.571Z,8.13
2019-04-27T06:41:23.295Z,9.03
2019-04-27T06:43:56.942Z,7.25
2019-04-27T06:46:30.598Z,7.58
2019-04-27T06:49:03.615Z,7.10
2019-04-27T06:51:36.981Z,12.40
2019-04-27T06:54:10.026Z,6.97
2019-04-27T06:56:43.711Z,7.22
2019-04-27T06:59:18.627Z,6.83
2019-04-27T07:01:55.977Z,7.67
2019-04-27T07:04:30.197Z,8.83
2019-04-27T07:07:04.033Z,7.40
2019-04-27T07:09:38.927Z,7.35
2019-04-27T07:12:16.888Z,5.47
2019-04-27T07:14:54.869Z,9.65
2019-04-27T07:17:29.411Z,7.85
2019-04-27T07:20:02.199Z,5.85
2019-04-27T07:22:35.093Z,6.40
2019-04-27T07:25:09.037Z,6.55
2019-04-27T07:27:44.407Z,7.67
2019-04-27T07:30:19.024Z,9.08
2019-04-27T07:32:52.872Z,8.43
2019-04-27T07:35:25.995Z,6.87
2019-04-27T07:37:59.685Z,6.30
2019-04-27T07:40:33.966Z,6.40
2019-04-27T07:43:14.639Z,5.62
2019-04-27T07:45:49.442Z,6.45
2019-04-27T07:48:23.925Z,6.10
2019-04-27T07:50:59.079Z,6.08
2019-04-27T07:53:32.724Z,5.10
2019-04-27T07:56:05.754Z,7.25
2019-04-27T07:58:39.637Z,5.58
2019-04-27T08:01:13.008Z,6.80
2019-04-27T08:06:19.288Z,7.62
2019-04-27T08:08:52.996Z,6.80
2019-04-27T08:11:26.572Z,6.17
2019-04-27T08:16:34.796Z,7.05
2019-04-27T08:19:09.911Z,5.33
2019-04-27T08:21:46.549Z,7.35
2019-04-27T08:24:19.660Z,4.05
2019-04-27T08:26:59.450Z,4.53
2019-04-27T08:29:58.786Z,8.10
2019-04-27T08:32:41.353Z,5.47
2019-04-27T08:35:15.585Z,4.53
2019-04-27T08:37:49.501Z,5.90
2019-04-27T08:40:22.949Z,4.08
2019-04-27T08:45:29.289Z,3.22
2019-04-27T08:48:03.700Z,3.65
2019-04-27T08:50:39.727Z,2.52
2019-04-27T08:53:12.251Z,4.40
2019-04-27T08:58:15.700Z,3.33
2019-04-27T09:00:49.220Z,3.05
2019-04-27T09:03:22.502Z,2.43
2019-04-27T09:05:56.008Z,2.53
2019-04-27T09:08:41.269Z,3.47
2019-04-27T09:11:42.441Z,3.27
2019-04-27T09:14:22.799Z,2.67
2019-04-27T09:17:06.715Z,3.20
2019-04-27T09:19:55.032Z,3.80
2019-04-27T09:22:28.987Z,5.73
2019-04-27T09:25:02.155Z,2.20
2019-04-27T09:27:35.615Z,2.53
2019-04-27T09:30:10.328Z,3.63
2019-04-27T09:32:43.209Z,4.57
2019-04-27T09:37:51.695Z,2.85
2019-04-27T09:40:26.740Z,1.72
2019-04-27T09:43:00.051Z,1.90
2019-04-27T09:45:33.799Z,1.90
2019-04-27T09:48:06.784Z,1.30
2019-04-27T09:50:40.107Z,2.57
2019-04-27T09:53:15.736Z,3.77
2019-04-27T09:55:48.918Z,1.47
2019-04-27T09:58:21.795Z,2.67
2019-04-27T10:00:56.817Z,1.40
2019-04-27T10:03:30.402Z,1.43
2019-04-27T10:06:05.751Z,3.57
2019-04-27T10:08:39.871Z,1.50
2019-04-27T10:11:13.002Z,1.77
2019-04-27T10:13:50.032Z,7.03
2019-04-27T10:16:23.408Z,1.87
2019-04-27T10:18:56.643Z,2.17
2019-04-27T10:21:29.960Z,1.67
2019-04-27T10:24:02.622Z,1.87
2019-04-27T10:26:36.236Z,2.17
2019-04-27T10:29:09.666Z,2.80
2019-04-27T10:31:42.625Z,4.03
2019-04-27T10:34:16.887Z,2.53
2019-04-27T10:36:50.267Z,4.03
2019-04-27T10:39:23.327Z,2.63
2019-04-27T10:41:56.535Z,2.90
2019-04-27T10:44:31.672Z,1.83
2019-04-27T10:47:05.859Z,3.57
2019-04-27T10:49:38.706Z,1.47
2019-04-27T10:52:11.706Z,2.17
2019-04-27T10:54:47.459Z,2.35
2019-04-27T10:57:20.141Z,1.57
2019-04-27T11:02:24.046Z,6.60
2019-04-27T11:05:20.920Z,1.60
2019-04-27T11:07:56.458Z,1.32
2019-04-27T11:10:29.796Z,1.55
2019-04-27T11:13:03.297Z,2.20
2019-04-27T11:15:37.193Z,1.07
2019-04-27T11:18:10.309Z,1.63
2019-04-27T11:20:43.369Z,1.20
2019-04-27T11:23:16.469Z,1.70
2019-04-27T11:25:49.616Z,0.90
2019-04-27T11:28:22.958Z,1.47
2019-04-27T11:30:55.960Z,2.07
2019-04-27T11:33:29.840Z,1.53
2019-04-27T11:36:20.094Z,1.17
2019-04-27T11:38:53.939Z,2.47
2019-04-27T11:41:27.120Z,1.83
2019-04-27T11:44:01.029Z,1.73
2019-04-27T11:46:34.793Z,1.10
2019-04-27T11:49:08.623Z,1.17
2019-04-27T11:51:41.786Z,1.43
2019-04-27T11:54:14.442Z,1.20
2019-04-27T11:56:47.289Z,1.90
2019-04-27T11:59:20.081Z,2.33
2019-04-27T12:01:53.523Z,1.23
2019-04-27T12:04:27.416Z,4.60
2019-04-27T12:07:01.109Z,2.13
2019-04-27T12:09:34.604Z,2.73
2019-04-27T12:12:14.983Z,1.70
2019-04-27T12:14:42.857Z,2.23
2019-04-27T12:17:16.808Z,3.72
2019-04-27T12:19:50.088Z,1.40
2019-04-27T12:22:23.467Z,1.03
2019-04-27T12:24:56.287Z,4.20
2019-04-27T12:30:31.136Z,0.60
2019-04-27T12:33:03.877Z,0.82
2019-04-27T12:35:36.939Z,0.90
2019-04-27T12:38:10.978Z,2.40
2019-04-27T12:40:44.429Z,5.57
2019-04-27T12:43:17.530Z,1.93
2019-04-27T12:45:50.546Z,2.20
2019-04-27T12:48:24.982Z,2.90
2019-04-27T12:50:57.789Z,1.70
2019-04-27T12:56:22.124Z,1.32
2019-04-27T12:59:12.718Z,1.27
2019-04-27T13:01:46.606Z,1.10
2019-04-27T13:04:19.927Z,0.60
2019-04-27T13:06:55.755Z,1.07
2019-04-27T13:09:28.739Z,0.87
2019-04-27T13:12:02.683Z,1.07
2019-04-27T13:14:37.370Z,0.90
2019-04-27T13:17:10.448Z,0.93
2019-04-27T13:19:45.650Z,0.67
2019-04-27T13:22:18.802Z,1.33
2019-04-27T13:24:52.717Z,0.70
2019-04-27T13:27:26.975Z,1.17
2019-04-27T13:30:00.094Z,0.73
2019-04-27T13:35:06.029Z,1.42
2019-04-27T13:37:42.041Z,0.60
2019-04-27T13:40:17.195Z,1.27
2019-04-27T13:43:00.422Z,2.27
2019-04-27T13:48:40.604Z,3.40
2019-04-27T13:51:16.644Z,0.80
2019-04-27T13:53:50.733Z,0.60
2019-04-27T13:56:24.862Z,1.33
2019-04-27T13:58:58.427Z,0.70
2019-04-27T14:01:32.196Z,0.97
2019-04-27T14:04:07.101Z,8.30
2019-04-27T14:06:41.811Z,0.83
2019-04-27T14:09:14.937Z,4.30
2019-04-27T14:11:48.350Z,1.47
2019-04-27T14:14:21.118Z,1.47
2019-04-27T14:16:53.634Z,2.65
2019-04-27T14:19:28.284Z,3.20
2019-04-27T14:22:01.989Z,1.20
2019-04-27T14:24:43.738Z,2.63
2019-04-27T14:27:18.345Z,1.17
2019-04-27T14:29:51.000Z,0.77
2019-04-27T14:32:24.931Z,1.12
2019-04-27T14:34:59.211Z,1.20
2019-04-27T14:37:33.189Z,1.03
2019-04-27T14:40:08.346Z,1.57
2019-04-27T14:42:41.834Z,1.50
2019-04-27T14:45:14.956Z,1.07
2019-04-27T14:47:48.518Z,1.60
2019-04-27T14:50:21.356Z,3.00
2019-04-27T14:52:54.194Z,2.55
2019-04-27T14:55:28.255Z,0.60
2019-04-27T14:58:03.162Z,1.72
2019-04-27T15:00:38.498Z,0.75
2019-04-27T15:03:12.476Z,1.22
2019-04-27T15:05:49.776Z,0.72
2019-04-27T15:08:21.634Z,0.55
2019-04-27T15:10:55.334Z,3.45
2019-04-27T15:13:29.338Z,0.72
2019-04-27T15:16:06.755Z,0.70
2019-04-27T15:18:44.405Z,0.60
2019-04-27T15:21:20.318Z,16.48
2019-04-27T15:23:54.507Z,7.65
2019-04-27T15:26:27.881Z,2.47
2019-04-27T15:31:40.871Z,0.90
2019-04-27T15:34:23.415Z,1.00
2019-04-27T15:40:10.004Z,2.17
2019-04-27T15:42:52.838Z,2.17
2019-04-27T15:45:24.965Z,2.22
2019-04-27T15:47:58.957Z,1.67
2019-04-27T15:50:32.840Z,1.52
2019-04-27T15:53:09.876Z,1.67
2019-04-27T15:55:41.447Z,2.25
2019-04-27T16:00:51.264Z,0.90
2019-04-27T16:03:22.851Z,1.30
2019-04-27T16:05:58.703Z,1.60
2019-04-27T16:08:31.541Z,1.20
2019-04-27T16:11:05.268Z,2.10
2019-04-27T16:13:38.552Z,3.93
2019-04-27T16:16:12.236Z,9.50
2019-04-27T16:18:46.297Z,1.97
2019-04-27T16:21:20.046Z,3.07
2019-04-27T16:23:53.032Z,4.93
2019-04-27T16:26:28.181Z,2.05
2019-04-27T16:29:01.814Z,2.07
2019-04-27T16:31:36.770Z,2.10
2019-04-27T16:34:09.903Z,3.40
2019-04-27T16:36:44.598Z,1.33
2019-04-27T16:39:20.442Z,1.10
2019-04-27T16:41:52.914Z,0.53
2019-04-27T16:44:26.487Z,2.40
2019-04-27T16:46:59.220Z,0.87
2019-04-27T16:49:31.946Z,1.00
2019-04-27T16:52:05.272Z,0.65
2019-04-27T16:54:41.587Z,0.23
2019-04-27T16:57:15.292Z,0.30
2019-04-27T16:59:54.894Z,0.40
2019-04-27T17:02:25.310Z,1.20
2019-04-27T17:04:59.225Z,1.00
2019-04-27T17:07:37.562Z,1.05
2019-04-27T17:10:09.011Z,0.40
2019-04-27T17:12:45.899Z,0.72
2019-04-27T17:15:39.041Z,0.90
2019-04-27T17:18:38.463Z,1.67
2019-04-27T17:21:18.780Z,0.98
2019-04-27T17:23:48.149Z,0.65
2019-04-27T17:29:00.958Z,0.62
2019-04-27T17:31:37.826Z,2.25
2019-04-27T17:34:11.609Z,4.15
2019-04-27T17:39:15.329Z,1.20
2019-04-27T17:41:52.182Z,2.70
2019-04-27T17:44:32.159Z,1.85
2019-04-27T17:47:06.466Z,0.72
2019-04-27T17:49:39.776Z,1.95
2019-04-27T17:52:17.201Z,0.95
2019-04-27T17:54:48.790Z,1.02
2019-04-27T17:57:26.128Z,1.80
2019-04-27T18:00:00.133Z,0.98
2019-04-27T18:02:33.826Z,1.47
2019-04-27T18:05:09.533Z,0.60
2019-04-27T18:07:44.505Z,3.17
2019-04-27T18:10:23.187Z,1.62
2019-04-27T18:12:53.475Z,2.90
2019-04-27T18:15:26.527Z,0.80
2019-04-27T18:18:01.907Z,0.70
2019-04-27T18:20:35.148Z,1.47
2019-04-27T18:23:15.093Z,4.00
2019-04-27T18:25:53.137Z,8.60
2019-04-27T18:28:31.828Z,2.92
2019-04-27T18:31:11.638Z,4.53
2019-04-27T18:33:44.211Z,1.77
2019-04-27T18:36:18.226Z,2.00
2019-04-27T18:38:52.357Z,1.60
2019-04-27T18:41:25.863Z,1.85
2019-04-27T18:44:00.432Z,1.35
2019-04-27T18:46:34.151Z,0.70
2019-04-27T18:49:35.509Z,2.77
2019-04-27T18:52:26.984Z,2.58
2019-04-27T18:55:01.536Z,1.12
2019-04-27T18:57:34.794Z,1.27
2019-04-27T19:00:11.410Z,3.47
2019-04-27T19:02:44.975Z,1.82
2019-04-27T19:05:19.022Z,1.10
2019-04-27T19:07:52.737Z,1.95
2019-04-27T19:10:28.147Z,1.50
2019-04-27T19:13:02.692Z,1.62
2019-04-27T19:15:36.354Z,2.87
2019-04-27T19:18:10.159Z,2.45
2019-04-27T19:20:44.094Z,1.50
2019-04-27T19:23:17.511Z,1.77
2019-04-27T19:28:54.135Z,1.98
2019-04-27T19:31:32.926Z,2.87
2019-04-27T19:34:07.308Z,1.15
2019-04-27T19:36:40.755Z,2.58
2019-04-27T19:41:57.957Z,1.27
2019-04-27T19:44:22.153Z,1.22
2019-04-27T19:49:31.166Z,2.05
2019-04-27T19:52:03.567Z,3.17
2019-04-27T19:54:36.608Z,2.90
2019-04-27T19:57:09.679Z,1.90
2019-04-27T19:59:53.043Z,2.87
2019-04-27T20:02:26.571Z,2.92
2019-04-27T20:05:04.619Z,2.42
2019-04-27T20:07:38.847Z,3.37
2019-04-27T20:10:12.380Z,3.15
2019-04-27T20:12:45.983Z,4.08
2019-04-27T20:15:21.790Z,2.08
2019-04-27T20:17:55.624Z,2.37
2019-04-27T20:20:28.343Z,1.70
2019-04-27T20:23:02.453Z,1.70
2019-04-27T20:25:36.420Z,3.87
2019-04-27T20:28:12.045Z,5.92
2019-04-27T20:30:45.597Z,2.52
2019-04-27T20:35:51.021Z,1.65
2019-04-27T20:38:24.983Z,2.05
2019-04-27T20:40:58.460Z,2.00
2019-04-27T20:46:04.900Z,2.17
2019-04-27T20:48:38.404Z,1.82
2019-04-27T20:51:12.119Z,2.72
2019-04-27T20:53:49.348Z,3.33
2019-04-27T20:56:22.533Z,2.70
2019-04-27T20:58:55.400Z,2.83
2019-04-27T21:01:28.894Z,2.70
2019-04-27T21:04:03.870Z,2.72
2019-04-27T21:06:51.034Z,1.98
2019-04-27T21:09:24.786Z,1.42
2019-04-27T21:11:58.292Z,1.52
2019-04-27T21:14:31.966Z,2.67
2019-04-27T21:17:05.103Z,1.50
2019-04-27T21:19:38.498Z,3.33
2019-04-27T21:22:12.426Z,2.05
2019-04-27T21:24:46.620Z,1.55
2019-04-27T21:27:21.615Z,2.12
2019-04-27T21:29:55.567Z,1.27
2019-04-27T21:32:30.721Z,1.35
2019-04-27T21:35:04.165Z,1.67
2019-04-27T21:40:18.281Z,1.75
2019-04-27T21:42:51.439Z,1.57
2019-04-27T21:45:25.256Z,1.80
2019-04-27T21:48:00.391Z,2.25
2019-04-27T21:50:34.649Z,1.77
2019-04-27T21:53:21.221Z,2.17
2019-04-27T21:56:02.096Z,2.00
2019-04-27T21:58:36.176Z,2.25
2019-04-27T22:01:13.950Z,1.95
2019-04-27T22:03:47.767Z,3.62
2019-04-27T22:06:20.918Z,1.98
2019-04-27T22:08:54.539Z,1.98
2019-04-27T22:11:31.938Z,2.67
2019-04-27T22:14:06.552Z,3.45
2019-04-27T22:16:41.651Z,1.57
2019-04-27T22:19:15.167Z,1.50
2019-04-27T22:21:48.708Z,2.50
2019-04-27T22:24:27.588Z,3.00
2019-04-27T22:27:00.228Z,2.12
2019-04-27T22:29:33.639Z,1.67
2019-04-27T22:32:07.232Z,2.75
2019-04-27T22:34:41.422Z,1.50
2019-04-27T22:37:14.739Z,1.47
2019-04-27T22:40:10.238Z,3.47
2019-04-27T22:43:02.864Z,2.42
2019-04-27T22:45:37.040Z,1.80
2019-04-27T22:48:11.346Z,4.83
2019-04-27T22:50:45.089Z,3.45
2019-04-27T22:53:18.859Z,1.82
2019-04-27T22:56:14.283Z,1.98
2019-04-27T22:59:00.484Z,2.37
2019-04-27T23:01:40.697Z,2.58
2019-04-27T23:04:16.720Z,1.17
2019-04-27T23:06:50.075Z,3.77
2019-04-27T23:09:25.858Z,4.58
2019-04-27T23:11:59.647Z,2.52
2019-04-27T23:14:35.768Z,6.75
2019-04-27T23:17:23.073Z,2.10
2019-04-27T23:19:56.097Z,2.58
2019-04-27T23:22:29.224Z,1.82
2019-04-27T23:27:34.224Z,4.53
2019-04-27T23:30:08.129Z,4.05
2019-04-27T23:32:47.042Z,3.92
2019-04-27T23:35:23.027Z,1.60
2019-04-27T23:37:56.844Z,2.27
2019-04-27T23:40:31.724Z,1.50
2019-04-27T23:43:05.152Z,2.40
2019-04-27T23:45:37.622Z,2.22
2019-04-27T23:48:12.323Z,1.70
2019-04-27T23:50:48.088Z,1.72
2019-04-27T23:53:23.256Z,2.80
2019-04-27T23:55:56.979Z,2.05
2019-04-27T23:58:30.632Z,1.27
